TW-0023 weather

Taipei City Hall Helipad
Taipei, Taipei (municipality), Taiwan

Public forecast

Using degrees Celsius for public forecast. Weather courtesy of forecast.io.

METAR (pilot weather report)

Closest report is Taipei Songshan Airport, 2.0 nm (3.8 km) NNW. Retrieved 2019/05/25 05:30 UTC (0 seconds ago):

RCSS 250530Z 11010KT 080V140 9999 FEW025 SCT200 32/22 Q1010 NOSIG RMK A2985

TAF (pilot weather forecast)

Forecast is more than 12 hours old.

Closest forecast is Taipei Songshan Airport, 2.0 nm (3.8 km) NNW. Retrieved 2019/05/24 00:00 UTC (1 day ago):

TAF RCSS 242300Z 2500/2524 09010KT 9999 FEW020 BKN060 TEMPO 2504/2510 10016KT BECMG 2514/2516 09005KT